sensor_id;sensor_type;location;lat;lon;timestamp;temperature;humidity
10802;DHT22;5453;50.852;7.102;2024-02-28T00:02:07;5.40;99.90
10802;DHT22;5453;50.852;7.102;2024-02-28T00:04:40;5.40;99.90
10802;DHT22;5453;50.852;7.102;2024-02-28T00:07:16;5.40;99.90
10802;DHT22;5453;50.852;7.102;2024-02-28T00:09:49;5.50;99.90
10802;DHT22;5453;50.852;7.102;2024-02-28T00:12:23;5.50;99.90
10802;DHT22;5453;50.852;7.102;2024-02-28T00:14:56;5.50;99.90
10802;DHT22;5453;50.852;7.102;2024-02-28T00:17:29;5.50;99.90
10802;DHT22;5453;50.852;7.102;2024-02-28T00:20:01;5.60;99.90
10802;DHT22;5453;50.852;7.102;2024-02-28T00:22:33;5.60;99.90
10802;DHT22;5453;50.852;7.102;2024-02-28T00:25:09;5.60;99.90
10802;DHT22;5453;50.852;7.102;2024-02-28T00:27:44;5.70;99.90
10802;DHT22;5453;50.852;7.102;2024-02-28T00:30:17;5.70;99.90
10802;DHT22;5453;50.852;7.102;2024-02-28T00:32:50;5.70;99.90
10802;DHT22;5453;50.852;7.102;2024-02-28T00:35:22;5.70;99.90
10802;DHT22;5453;50.852;7.102;2024-02-28T00:37:54;5.70;99.90
10802;DHT22;5453;50.852;7.102;2024-02-28T00:40:26;5.70;99.90
10802;DHT22;5453;50.852;7.102;2024-02-28T00:43:00;5.60;99.90
10802;DHT22;5453;50.852;7.102;2024-02-28T00:45:33;5.60;99.90
10802;DHT22;5453;50.852;7.102;2024-02-28T00:48:06;5.60;99.90
10802;DHT22;5453;50.852;7.102;2024-02-28T00:50:38;5.70;99.90
10802;DHT22;5453;50.852;7.102;2024-02-28T00:53:11;5.70;99.90
10802;DHT22;5453;50.852;7.102;2024-02-28T00:55:43;5.60;99.90
10802;DHT22;5453;50.852;7.102;2024-02-28T00:58:17;5.70;99.90
10802;DHT22;5453;50.852;7.102;2024-02-28T01:00:49;5.70;99.90
10802;DHT22;5453;50.852;7.102;2024-02-28T01:03:21;5.70;99.90
10802;DHT22;5453;50.852;7.102;2024-02-28T01:05:54;5.70;99.90
10802;DHT22;5453;50.852;7.102;2024-02-28T01:08:26;5.70;99.90
10802;DHT22;5453;50.852;7.102;2024-02-28T01:10:58;5.70;99.90
10802;DHT22;5453;50.852;7.102;2024-02-28T01:13:32;5.80;99.90
10802;DHT22;5453;50.852;7.102;2024-02-28T01:16:04;5.70;99.90
10802;DHT22;5453;50.852;7.102;2024-02-28T01:18:37;5.80;99.90
10802;DHT22;5453;50.852;7.102;2024-02-28T01:21:12;5.80;99.90
10802;DHT22;5453;50.852;7.102;2024-02-28T01:23:44;5.80;99.90
10802;DHT22;5453;50.852;7.102;2024-02-28T01:26:17;5.80;99.90
10802;DHT22;5453;50.852;7.102;2024-02-28T01:28:52;5.80;99.90
10802;DHT22;5453;50.852;7.102;2024-02-28T01:31:24;5.80;99.90
10802;DHT22;5453;50.852;7.102;2024-02-28T01:33:57;5.80;99.90
10802;DHT22;5453;50.852;7.102;2024-02-28T01:36:29;5.80;99.90
10802;DHT22;5453;50.852;7.102;2024-02-28T01:39:01;5.80;99.90
10802;DHT22;5453;50.852;7.102;2024-02-28T01:41:34;5.90;99.90
10802;DHT22;5453;50.852;7.102;2024-02-28T01:44:07;5.90;99.90
10802;DHT22;5453;50.852;7.102;2024-02-28T01:46:40;5.80;99.90
10802;DHT22;5453;50.852;7.102;2024-02-28T01:49:12;5.80;99.90
10802;DHT22;5453;50.852;7.102;2024-02-28T01:51:47;5.90;99.90
10802;DHT22;5453;50.852;7.102;2024-02-28T01:54:20;5.90;99.90
10802;DHT22;5453;50.852;7.102;2024-02-28T01:56:54;5.80;99.90
10802;DHT22;5453;50.852;7.102;2024-02-28T01:59:31;5.90;99.90
10802;DHT22;5453;50.852;7.102;2024-02-28T02:02:04;5.90;99.90
10802;DHT22;5453;50.852;7.102;2024-02-28T02:04:36;5.80;99.90
10802;DHT22;5453;50.852;7.102;2024-02-28T02:07:08;5.80;99.90
10802;DHT22;5453;50.852;7.102;2024-02-28T02:09:41;5.90;99.90
10802;DHT22;5453;50.852;7.102;2024-02-28T02:12:13;5.90;99.90
10802;DHT22;5453;50.852;7.102;2024-02-28T02:14:49;5.90;99.90
10802;DHT22;5453;50.852;7.102;2024-02-28T02:17:21;5.90;99.90
10802;DHT22;5453;50.852;7.102;2024-02-28T02:19:54;5.90;99.90
10802;DHT22;5453;50.852;7.102;2024-02-28T02:25:07;5.80;99.90
10802;DHT22;5453;50.852;7.102;2024-02-28T02:27:43;5.90;99.90
10802;DHT22;5453;50.852;7.102;2024-02-28T02:30:15;5.90;99.90
10802;DHT22;5453;50.852;7.102;2024-02-28T02:32:48;5.90;99.90
10802;DHT22;5453;50.852;7.102;2024-02-28T02:35:20;5.90;99.90
10802;DHT22;5453;50.852;7.102;2024-02-28T02:37:54;5.90;99.90
10802;DHT22;5453;50.852;7.102;2024-02-28T02:40:26;5.90;99.90
10802;DHT22;5453;50.852;7.102;2024-02-28T02:47:10;5.90;99.90
10802;DHT22;5453;50.852;7.102;2024-02-28T02:49:42;5.90;99.90
10802;DHT22;5453;50.852;7.102;2024-02-28T02:52:15;5.90;99.90
10802;DHT22;5453;50.852;7.102;2024-02-28T02:54:48;5.90;99.90
10802;DHT22;5453;50.852;7.102;2024-02-28T02:57:23;5.90;99.90
10802;DHT22;5453;50.852;7.102;2024-02-28T02:59:56;5.90;99.90
10802;DHT22;5453;50.852;7.102;2024-02-28T03:02:28;5.90;99.90
10802;DHT22;5453;50.852;7.102;2024-02-28T03:05:01;5.90;99.90
10802;DHT22;5453;50.852;7.102;2024-02-28T03:07:33;5.90;99.90
10802;DHT22;5453;50.852;7.102;2024-02-28T03:10:07;5.90;99.90
10802;DHT22;5453;50.852;7.102;2024-02-28T03:12:41;5.90;99.90
10802;DHT22;5453;50.852;7.102;2024-02-28T03:15:13;5.90;99.90
10802;DHT22;5453;50.852;7.102;2024-02-28T03:17:45;5.90;99.90
10802;DHT22;5453;50.852;7.102;2024-02-28T03:20:18;5.90;99.90
10802;DHT22;5453;50.852;7.102;2024-02-28T03:22:50;5.90;99.90
10802;DHT22;5453;50.852;7.102;2024-02-28T03:25:24;5.90;99.90
10802;DHT22;5453;50.852;7.102;2024-02-28T03:27:56;5.90;99.90
10802;DHT22;5453;50.852;7.102;2024-02-28T03:30:28;5.90;99.90
10802;DHT22;5453;50.852;7.102;2024-02-28T03:33:01;5.90;99.90
10802;DHT22;5453;50.852;7.102;2024-02-28T03:35:33;5.90;99.90
10802;DHT22;5453;50.852;7.102;2024-02-28T03:38:05;5.90;99.90
10802;DHT22;5453;50.852;7.102;2024-02-28T03:40:39;5.90;99.90
10802;DHT22;5453;50.852;7.102;2024-02-28T03:43:12;5.90;99.90
10802;DHT22;5453;50.852;7.102;2024-02-28T03:45:47;5.90;99.90
10802;DHT22;5453;50.852;7.102;2024-02-28T03:48:20;5.90;99.90
10802;DHT22;5453;50.852;7.102;2024-02-28T03:50:53;5.80;99.90
10802;DHT22;5453;50.852;7.102;2024-02-28T03:53:25;5.80;99.90
10802;DHT22;5453;50.852;7.102;2024-02-28T03:55:59;5.80;99.90
10802;DHT22;5453;50.852;7.102;2024-02-28T03:58:31;5.90;99.90
10802;DHT22;5453;50.852;7.102;2024-02-28T04:01:03;5.80;99.90
10802;DHT22;5453;50.852;7.102;2024-02-28T04:03:36;5.90;99.90
10802;DHT22;5453;50.852;7.102;2024-02-28T04:06:08;5.80;99.90
10802;DHT22;5453;50.852;7.102;2024-02-28T04:08:41;5.80;99.90
10802;DHT22;5453;50.852;7.102;2024-02-28T04:11:14;5.80;99.90
10802;DHT22;5453;50.852;7.102;2024-02-28T04:13:47;5.90;99.90
10802;DHT22;5453;50.852;7.102;2024-02-28T04:16:19;5.90;99.90
10802;DHT22;5453;50.852;7.102;2024-02-28T04:18:51;5.90;99.90
10802;DHT22;5453;50.852;7.102;2024-02-28T04:21:24;5.80;99.90
10802;DHT22;5453;50.852;7.102;2024-02-28T04:23:59;5.90;99.90
10802;DHT22;5453;50.852;7.102;2024-02-28T04:26:33;5.90;99.90
10802;DHT22;5453;50.852;7.102;2024-02-28T04:29:05;5.90;99.90
10802;DHT22;5453;50.852;7.102;2024-02-28T04:31:44;5.90;99.90
10802;DHT22;5453;50.852;7.102;2024-02-28T04:34:16;5.90;99.90
10802;DHT22;5453;50.852;7.102;2024-02-28T04:36:49;5.90;99.90
10802;DHT22;5453;50.852;7.102;2024-02-28T04:39:21;5.80;99.90
10802;DHT22;5453;50.852;7.102;2024-02-28T04:41:55;5.90;99.90
10802;DHT22;5453;50.852;7.102;2024-02-28T04:44:27;5.80;99.90
10802;DHT22;5453;50.852;7.102;2024-02-28T04:46:59;5.80;99.90
10802;DHT22;5453;50.852;7.102;2024-02-28T04:49:37;5.90;99.90
10802;DHT22;5453;50.852;7.102;2024-02-28T04:52:09;5.90;99.90
10802;DHT22;5453;50.852;7.102;2024-02-28T04:54:42;5.90;99.90
10802;DHT22;5453;50.852;7.102;2024-02-28T04:57:16;5.90;99.90
10802;DHT22;5453;50.852;7.102;2024-02-28T04:59:51;5.90;99.90
10802;DHT22;5453;50.852;7.102;2024-02-28T05:02:24;5.90;99.90
10802;DHT22;5453;50.852;7.102;2024-02-28T05:04:56;5.90;99.90
10802;DHT22;5453;50.852;7.102;2024-02-28T05:07:29;5.90;99.90
10802;DHT22;5453;50.852;7.102;2024-02-28T05:10:02;5.90;99.90
10802;DHT22;5453;50.852;7.102;2024-02-28T05:12:36;5.90;99.90
10802;DHT22;5453;50.852;7.102;2024-02-28T05:15:10;5.90;99.90
10802;DHT22;5453;50.852;7.102;2024-02-28T05:17:42;5.90;99.90
10802;DHT22;5453;50.852;7.102;2024-02-28T05:20:15;5.90;99.90
10802;DHT22;5453;50.852;7.102;2024-02-28T05:22:47;5.90;99.90
10802;DHT22;5453;50.852;7.102;2024-02-28T05:25:19;5.90;99.90
10802;DHT22;5453;50.852;7.102;2024-02-28T05:27:53;5.90;99.90
10802;DHT22;5453;50.852;7.102;2024-02-28T05:30:26;6.00;99.90
10802;DHT22;5453;50.852;7.102;2024-02-28T05:32:58;6.00;99.90
10802;DHT22;5453;50.852;7.102;2024-02-28T05:35:30;6.00;99.90
10802;DHT22;5453;50.852;7.102;2024-02-28T05:38:06;6.00;99.90
10802;DHT22;5453;50.852;7.102;2024-02-28T05:40:38;6.00;99.90
10802;DHT22;5453;50.852;7.102;2024-02-28T05:43:12;6.00;99.90
10802;DHT22;5453;50.852;7.102;2024-02-28T05:45:47;6.00;99.90
10802;DHT22;5453;50.852;7.102;2024-02-28T05:48:20;6.00;99.90
10802;DHT22;5453;50.852;7.102;2024-02-28T05:50:52;6.10;99.90
10802;DHT22;5453;50.852;7.102;2024-02-28T05:53:24;6.00;99.90
10802;DHT22;5453;50.852;7.102;2024-02-28T05:55:57;6.00;99.90
10802;DHT22;5453;50.852;7.102;2024-02-28T05:58:31;6.00;99.90
10802;DHT22;5453;50.852;7.102;2024-02-28T06:01:04;6.00;99.90
10802;DHT22;5453;50.852;7.102;2024-02-28T06:03:38;6.00;99.90
10802;DHT22;5453;50.852;7.102;2024-02-28T06:06:10;6.00;99.90
10802;DHT22;5453;50.852;7.102;2024-02-28T06:08:44;6.00;99.90
10802;DHT22;5453;50.852;7.102;2024-02-28T06:11:16;6.00;99.90
10802;DHT22;5453;50.852;7.102;2024-02-28T06:13:51;6.00;99.90
10802;DHT22;5453;50.852;7.102;2024-02-28T06:16:23;6.00;99.90
10802;DHT22;5453;50.852;7.102;2024-02-28T06:18:56;6.00;99.90
10802;DHT22;5453;50.852;7.102;2024-02-28T06:21:28;6.10;99.90
10802;DHT22;5453;50.852;7.102;2024-02-28T06:24:01;6.00;99.90
10802;DHT22;5453;50.852;7.102;2024-02-28T06:26:35;6.00;99.90
10802;DHT22;5453;50.852;7.102;2024-02-28T06:29:08;6.00;99.90
10802;DHT22;5453;50.852;7.102;2024-02-28T06:31:41;6.00;99.90
10802;DHT22;5453;50.852;7.102;2024-02-28T06:34:13;6.00;99.90
10802;DHT22;5453;50.852;7.102;2024-02-28T06:36:46;6.10;99.90
10802;DHT22;5453;50.852;7.102;2024-02-28T06:39:18;6.00;99.90
10802;DHT22;5453;50.852;7.102;2024-02-28T06:41:54;6.10;99.90
10802;DHT22;5453;50.852;7.102;2024-02-28T06:44:27;6.10;99.90
10802;DHT22;5453;50.852;7.102;2024-02-28T06:47:00;6.10;99.90
10802;DHT22;5453;50.852;7.102;2024-02-28T06:49:32;6.10;99.90
10802;DHT22;5453;50.852;7.102;2024-02-28T06:52:08;6.10;99.90
10802;DHT22;5453;50.852;7.102;2024-02-28T06:54:40;6.10;99.90
10802;DHT22;5453;50.852;7.102;2024-02-28T06:57:12;6.10;99.90
10802;DHT22;5453;50.852;7.102;2024-02-28T06:59:46;6.00;99.90
10802;DHT22;5453;50.852;7.102;2024-02-28T07:02:19;6.00;99.90
10802;DHT22;5453;50.852;7.102;2024-02-28T07:04:51;6.00;99.90
10802;DHT22;5453;50.852;7.102;2024-02-28T07:07:27;6.10;99.90
10802;DHT22;5453;50.852;7.102;2024-02-28T07:09:59;6.10;99.90
10802;DHT22;5453;50.852;7.102;2024-02-28T07:12:32;6.10;99.90
10802;DHT22;5453;50.852;7.102;2024-02-28T07:15:06;6.10;99.90
10802;DHT22;5453;50.852;7.102;2024-02-28T07:17:39;6.10;99.90
10802;DHT22;5453;50.852;7.102;2024-02-28T07:20:14;6.10;99.90
10802;DHT22;5453;50.852;7.102;2024-02-28T07:22:47;6.10;99.90
10802;DHT22;5453;50.852;7.102;2024-02-28T07:25:19;6.10;99.90
10802;DHT22;5453;50.852;7.102;2024-02-28T07:27:52;6.20;99.90
10802;DHT22;5453;50.852;7.102;2024-02-28T07:30:26;6.10;99.90
10802;DHT22;5453;50.852;7.102;2024-02-28T07:32:58;6.20;99.90
10802;DHT22;5453;50.852;7.102;2024-02-28T07:35:31;6.20;99.90
10802;DHT22;5453;50.852;7.102;2024-02-28T07:38:03;6.20;99.90
10802;DHT22;5453;50.852;7.102;2024-02-28T07:40:37;6.20;99.90
10802;DHT22;5453;50.852;7.102;2024-02-28T07:43:09;6.20;99.90
10802;DHT22;5453;50.852;7.102;2024-02-28T07:45:43;6.20;99.90
10802;DHT22;5453;50.852;7.102;2024-02-28T07:48:15;6.20;99.90
10802;DHT22;5453;50.852;7.102;2024-02-28T07:50:48;6.20;99.90
10802;DHT22;5453;50.852;7.102;2024-02-28T07:53:20;6.30;99.90
10802;DHT22;5453;50.852;7.102;2024-02-28T07:55:53;6.30;99.90
10802;DHT22;5453;50.852;7.102;2024-02-28T07:58:25;6.40;99.90
10802;DHT22;5453;50.852;7.102;2024-02-28T08:00:59;6.40;99.90
10802;DHT22;5453;50.852;7.102;2024-02-28T08:03:31;6.40;99.90
10802;DHT22;5453;50.852;7.102;2024-02-28T08:06:04;6.40;99.90
10802;DHT22;5453;50.852;7.102;2024-02-28T08:08:37;6.40;99.90
10802;DHT22;5453;50.852;7.102;2024-02-28T08:11:09;6.40;99.90
10802;DHT22;5453;50.852;7.102;2024-02-28T08:13:42;6.40;99.90
10802;DHT22;5453;50.852;7.102;2024-02-28T08:16:16;6.30;99.90
10802;DHT22;5453;50.852;7.102;2024-02-28T08:18:48;6.40;99.90
10802;DHT22;5453;50.852;7.102;2024-02-28T08:21:20;6.40;99.90
10802;DHT22;5453;50.852;7.102;2024-02-28T08:23:53;6.40;99.90
10802;DHT22;5453;50.852;7.102;2024-02-28T08:26:25;6.50;99.90
10802;DHT22;5453;50.852;7.102;2024-02-28T08:28:58;6.70;99.90
10802;DHT22;5453;50.852;7.102;2024-02-28T08:31:31;7.00;99.90
10802;DHT22;5453;50.852;7.102;2024-02-28T08:34:04;7.10;99.90
10802;DHT22;5453;50.852;7.102;2024-02-28T08:36:36;7.10;99.90
10802;DHT22;5453;50.852;7.102;2024-02-28T08:39:08;7.00;99.90
10802;DHT22;5453;50.852;7.102;2024-02-28T08:41:42;7.00;99.90
10802;DHT22;5453;50.852;7.102;2024-02-28T08:44:14;7.00;99.90
10802;DHT22;5453;50.852;7.102;2024-02-28T08:46:48;7.00;99.90
10802;DHT22;5453;50.852;7.102;2024-02-28T08:49:20;6.90;99.90
10802;DHT22;5453;50.852;7.102;2024-02-28T08:51:53;6.90;99.90
10802;DHT22;5453;50.852;7.102;2024-02-28T08:54:29;7.00;99.90
10802;DHT22;5453;50.852;7.102;2024-02-28T08:57:01;7.00;99.90
10802;DHT22;5453;50.852;7.102;2024-02-28T08:59:34;6.90;99.90
10802;DHT22;5453;50.852;7.102;2024-02-28T09:02:08;7.00;99.90
10802;DHT22;5453;50.852;7.102;2024-02-28T09:04:41;7.00;99.90
10802;DHT22;5453;50.852;7.102;2024-02-28T09:07:13;7.00;99.90
10802;DHT22;5453;50.852;7.102;2024-02-28T09:09:49;7.10;99.90
10802;DHT22;5453;50.852;7.102;2024-02-28T09:12:22;7.10;99.90
10802;DHT22;5453;50.852;7.102;2024-02-28T09:14:54;7.10;99.90
10802;DHT22;5453;50.852;7.102;2024-02-28T09:17:29;7.20;99.90
10802;DHT22;5453;50.852;7.102;2024-02-28T09:20:06;7.20;99.90
10802;DHT22;5453;50.852;7.102;2024-02-28T09:22:39;7.20;99.90
10802;DHT22;5453;50.852;7.102;2024-02-28T09:25:12;7.20;99.90
10802;DHT22;5453;50.852;7.102;2024-02-28T09:27:46;7.20;99.90
10802;DHT22;5453;50.852;7.102;2024-02-28T09:30:19;7.20;99.90
10802;DHT22;5453;50.852;7.102;2024-02-28T09:32:53;7.30;99.90
10802;DHT22;5453;50.852;7.102;2024-02-28T09:35:25;7.40;99.90
10802;DHT22;5453;50.852;7.102;2024-02-28T09:37:57;7.50;99.90
10802;DHT22;5453;50.852;7.102;2024-02-28T09:40:30;7.60;99.90
10802;DHT22;5453;50.852;7.102;2024-02-28T09:43:03;7.80;99.90
10802;DHT22;5453;50.852;7.102;2024-02-28T09:45:36;7.90;99.90
10802;DHT22;5453;50.852;7.102;2024-02-28T09:48:10;8.00;99.90
10802;DHT22;5453;50.852;7.102;2024-02-28T09:50:45;8.10;99.90
10802;DHT22;5453;50.852;7.102;2024-02-28T09:53:18;8.20;99.90
10802;DHT22;5453;50.852;7.102;2024-02-28T09:55:50;8.40;99.90
10802;DHT22;5453;50.852;7.102;2024-02-28T09:58:23;9.00;99.90
10802;DHT22;5453;50.852;7.102;2024-02-28T10:00:59;9.20;99.90
10802;DHT22;5453;50.852;7.102;2024-02-28T10:03:37;9.30;99.90
10802;DHT22;5453;50.852;7.102;2024-02-28T10:06:10;9.30;99.90
10802;DHT22;5453;50.852;7.102;2024-02-28T10:08:43;9.30;99.90
10802;DHT22;5453;50.852;7.102;2024-02-28T10:11:18;9.30;99.90
10802;DHT22;5453;50.852;7.102;2024-02-28T10:13:52;9.20;99.90
10802;DHT22;5453;50.852;7.102;2024-02-28T10:16:26;9.30;99.90
10802;DHT22;5453;50.852;7.102;2024-02-28T10:18:59;9.30;99.90
10802;DHT22;5453;50.852;7.102;2024-02-28T10:21:33;9.40;99.90
10802;DHT22;5453;50.852;7.102;2024-02-28T10:24:06;9.40;99.90
10802;DHT22;5453;50.852;7.102;2024-02-28T10:26:42;9.50;99.90
10802;DHT22;5453;50.852;7.102;2024-02-28T10:29:15;9.70;99.90
10802;DHT22;5453;50.852;7.102;2024-02-28T10:31:47;9.80;99.90
10802;DHT22;5453;50.852;7.102;2024-02-28T10:34:21;10.20;99.90
10802;DHT22;5453;50.852;7.102;2024-02-28T10:36:54;10.40;99.90
10802;DHT22;5453;50.852;7.102;2024-02-28T10:39:29;10.60;99.90
10802;DHT22;5453;50.852;7.102;2024-02-28T10:42:02;10.60;99.90
10802;DHT22;5453;50.852;7.102;2024-02-28T10:44:36;10.70;99.90
10802;DHT22;5453;50.852;7.102;2024-02-28T10:47:11;10.80;99.90
10802;DHT22;5453;50.852;7.102;2024-02-28T10:49:44;10.80;99.90
10802;DHT22;5453;50.852;7.102;2024-02-28T10:52:22;10.70;99.90
10802;DHT22;5453;50.852;7.102;2024-02-28T10:54:55;10.70;99.90
10802;DHT22;5453;50.852;7.102;2024-02-28T10:57:31;10.80;99.90
10802;DHT22;5453;50.852;7.102;2024-02-28T11:00:06;10.90;99.90
10802;DHT22;5453;50.852;7.102;2024-02-28T11:02:40;10.90;99.90
10802;DHT22;5453;50.852;7.102;2024-02-28T11:05:15;11.00;99.90
10802;DHT22;5453;50.852;7.102;2024-02-28T11:07:51;11.00;99.90
10802;DHT22;5453;50.852;7.102;2024-02-28T11:10:31;10.90;99.90
10802;DHT22;5453;50.852;7.102;2024-02-28T11:13:04;10.80;99.90
10802;DHT22;5453;50.852;7.102;2024-02-28T11:15:36;10.80;99.90
10802;DHT22;5453;50.852;7.102;2024-02-28T11:18:09;10.70;99.90
10802;DHT22;5453;50.852;7.102;2024-02-28T11:20:48;10.70;99.90
10802;DHT22;5453;50.852;7.102;2024-02-28T11:23:21;10.80;99.90
10802;DHT22;5453;50.852;7.102;2024-02-28T11:25:53;10.90;99.90
10802;DHT22;5453;50.852;7.102;2024-02-28T11:28:26;11.00;99.90
10802;DHT22;5453;50.852;7.102;2024-02-28T11:30:58;11.20;99.90
10802;DHT22;5453;50.852;7.102;2024-02-28T11:33:31;11.40;99.90
10802;DHT22;5453;50.852;7.102;2024-02-28T11:36:06;11.60;99.90
10802;DHT22;5453;50.852;7.102;2024-02-28T11:38:42;11.70;99.90
10802;DHT22;5453;50.852;7.102;2024-02-28T11:41:25;11.90;99.90
10802;DHT22;5453;50.852;7.102;2024-02-28T11:43:58;11.90;99.90
10802;DHT22;5453;50.852;7.102;2024-02-28T11:46:38;11.90;99.90
10802;DHT22;5453;50.852;7.102;2024-02-28T11:49:10;12.00;99.90
10802;DHT22;5453;50.852;7.102;2024-02-28T11:51:45;12.20;99.90
10802;DHT22;5453;50.852;7.102;2024-02-28T11:54:17;12.20;99.90
10802;DHT22;5453;50.852;7.102;2024-02-28T11:56:53;12.30;99.90
10802;DHT22;5453;50.852;7.102;2024-02-28T11:59:25;12.40;99.90
10802;DHT22;5453;50.852;7.102;2024-02-28T12:01:57;12.50;99.90
10802;DHT22;5453;50.852;7.102;2024-02-28T12:04:30;12.60;99.90
10802;DHT22;5453;50.852;7.102;2024-02-28T12:07:05;12.60;99.90
10802;DHT22;5453;50.852;7.102;2024-02-28T12:09:37;12.60;99.90
10802;DHT22;5453;50.852;7.102;2024-02-28T12:12:12;12.60;99.60
10802;DHT22;5453;50.852;7.102;2024-02-28T12:14:48;12.70;99.90
10802;DHT22;5453;50.852;7.102;2024-02-28T12:17:20;12.90;99.90
10802;DHT22;5453;50.852;7.102;2024-02-28T12:19:53;13.00;99.90
10802;DHT22;5453;50.852;7.102;2024-02-28T12:22:26;13.00;99.10
10802;DHT22;5453;50.852;7.102;2024-02-28T12:24:59;13.10;99.10
10802;DHT22;5453;50.852;7.102;2024-02-28T12:27:35;13.20;97.90
10802;DHT22;5453;50.852;7.102;2024-02-28T12:30:08;13.10;97.30
10802;DHT22;5453;50.852;7.102;2024-02-28T12:32:44;13.00;96.70
10802;DHT22;5453;50.852;7.102;2024-02-28T12:35:16;13.00;97.30
10802;DHT22;5453;50.852;7.102;2024-02-28T12:37:50;13.00;97.40
10802;DHT22;5453;50.852;7.102;2024-02-28T12:40:22;13.00;97.20
10802;DHT22;5453;50.852;7.102;2024-02-28T12:42:56;13.00;97.20
10802;DHT22;5453;50.852;7.102;2024-02-28T12:45:28;13.10;97.10
10802;DHT22;5453;50.852;7.102;2024-02-28T12:48:01;13.10;96.50
10802;DHT22;5453;50.852;7.102;2024-02-28T12:50:33;13.10;96.20
10802;DHT22;5453;50.852;7.102;2024-02-28T12:53:07;13.00;95.80
10802;DHT22;5453;50.852;7.102;2024-02-28T12:55:40;12.80;95.70
10802;DHT22;5453;50.852;7.102;2024-02-28T12:58:12;12.70;95.80
10802;DHT22;5453;50.852;7.102;2024-02-28T13:00:45;12.70;96.30
10802;DHT22;5453;50.852;7.102;2024-02-28T13:03:17;12.70;95.80
10802;DHT22;5453;50.852;7.102;2024-02-28T13:05:50;12.60;96.00
10802;DHT22;5453;50.852;7.102;2024-02-28T13:08:23;12.70;95.90
10802;DHT22;5453;50.852;7.102;2024-02-28T13:10:59;12.70;95.80
10802;DHT22;5453;50.852;7.102;2024-02-28T13:13:31;12.70;95.50
10802;DHT22;5453;50.852;7.102;2024-02-28T13:16:04;12.80;95.20
10802;DHT22;5453;50.852;7.102;2024-02-28T13:18:39;12.80;95.50
10802;DHT22;5453;50.852;7.102;2024-02-28T13:21:11;12.90;95.10
10802;DHT22;5453;50.852;7.102;2024-02-28T13:23:45;12.90;94.50
10802;DHT22;5453;50.852;7.102;2024-02-28T13:26:18;12.90;94.20
10802;DHT22;5453;50.852;7.102;2024-02-28T13:28:51;12.80;93.50
10802;DHT22;5453;50.852;7.102;2024-02-28T13:31:23;12.70;92.70
10802;DHT22;5453;50.852;7.102;2024-02-28T13:33:56;12.60;93.20
10802;DHT22;5453;50.852;7.102;2024-02-28T13:36:28;12.50;93.30
10802;DHT22;5453;50.852;7.102;2024-02-28T13:39:04;12.50;93.50
10802;DHT22;5453;50.852;7.102;2024-02-28T13:41:36;12.40;93.50
10802;DHT22;5453;50.852;7.102;2024-02-28T13:44:09;12.40;93.80
10802;DHT22;5453;50.852;7.102;2024-02-28T13:46:41;12.40;94.10
10802;DHT22;5453;50.852;7.102;2024-02-28T13:49:15;12.50;94.20
10802;DHT22;5453;50.852;7.102;2024-02-28T13:51:48;12.50;94.70
10802;DHT22;5453;50.852;7.102;2024-02-28T13:54:23;12.50;94.60
10802;DHT22;5453;50.852;7.102;2024-02-28T13:56:55;12.40;94.20
10802;DHT22;5453;50.852;7.102;2024-02-28T13:59:29;12.40;93.60
10802;DHT22;5453;50.852;7.102;2024-02-28T14:02:01;12.30;94.00
10802;DHT22;5453;50.852;7.102;2024-02-28T14:04:33;12.30;94.80
10802;DHT22;5453;50.852;7.102;2024-02-28T14:07:09;12.30;94.90
10802;DHT22;5453;50.852;7.102;2024-02-28T14:09:42;12.20;94.40
10802;DHT22;5453;50.852;7.102;2024-02-28T14:12:16;12.10;94.30
10802;DHT22;5453;50.852;7.102;2024-02-28T14:14:49;12.10;94.70
10802;DHT22;5453;50.852;7.102;2024-02-28T14:17:21;12.00;94.80
10802;DHT22;5453;50.852;7.102;2024-02-28T14:19:53;12.00;94.80
10802;DHT22;5453;50.852;7.102;2024-02-28T14:22:26;12.00;95.10
10802;DHT22;5453;50.852;7.102;2024-02-28T14:25:00;12.00;95.00
10802;DHT22;5453;50.852;7.102;2024-02-28T14:27:32;11.90;95.00
10802;DHT22;5453;50.852;7.102;2024-02-28T14:30:07;11.90;95.20
10802;DHT22;5453;50.852;7.102;2024-02-28T14:32:42;11.90;95.20
10802;DHT22;5453;50.852;7.102;2024-02-28T14:35:15;11.80;95.40
10802;DHT22;5453;50.852;7.102;2024-02-28T14:37:48;11.80;95.50
10802;DHT22;5453;50.852;7.102;2024-02-28T14:40:21;11.80;95.20
10802;DHT22;5453;50.852;7.102;2024-02-28T14:42:54;11.70;95.40
10802;DHT22;5453;50.852;7.102;2024-02-28T14:45:27;11.70;95.50
10802;DHT22;5453;50.852;7.102;2024-02-28T14:48:01;11.70;95.60
10802;DHT22;5453;50.852;7.102;2024-02-28T14:50:36;11.70;95.70
10802;DHT22;5453;50.852;7.102;2024-02-28T14:53:08;11.70;95.90
10802;DHT22;5453;50.852;7.102;2024-02-28T14:55:42;11.70;96.00
10802;DHT22;5453;50.852;7.102;2024-02-28T14:58:17;11.70;96.20
10802;DHT22;5453;50.852;7.102;2024-02-28T15:00:53;11.70;96.40
10802;DHT22;5453;50.852;7.102;2024-02-28T15:03:29;11.70;96.70
10802;DHT22;5453;50.852;7.102;2024-02-28T15:06:01;11.80;96.60
10802;DHT22;5453;50.852;7.102;2024-02-28T15:08:33;11.80;96.70
10802;DHT22;5453;50.852;7.102;2024-02-28T15:11:07;11.80;96.80
10802;DHT22;5453;50.852;7.102;2024-02-28T15:13:40;11.80;96.90
10802;DHT22;5453;50.852;7.102;2024-02-28T15:16:12;11.80;96.80
10802;DHT22;5453;50.852;7.102;2024-02-28T15:18:44;11.80;96.80
10802;DHT22;5453;50.852;7.102;2024-02-28T15:21:17;11.70;96.70
10802;DHT22;5453;50.852;7.102;2024-02-28T15:23:49;11.70;96.80
10802;DHT22;5453;50.852;7.102;2024-02-28T15:26:23;11.70;96.90
10802;DHT22;5453;50.852;7.102;2024-02-28T15:28:55;11.80;97.50
10802;DHT22;5453;50.852;7.102;2024-02-28T15:31:28;11.80;96.50
10802;DHT22;5453;50.852;7.102;2024-02-28T15:34:00;11.70;96.30
10802;DHT22;5453;50.852;7.102;2024-02-28T15:36:33;11.70;96.60
10802;DHT22;5453;50.852;7.102;2024-02-28T15:39:05;11.70;96.80
10802;DHT22;5453;50.852;7.102;2024-02-28T15:41:39;11.60;97.00
10802;DHT22;5453;50.852;7.102;2024-02-28T15:44:12;11.60;97.20
10802;DHT22;5453;50.852;7.102;2024-02-28T15:46:44;11.60;97.50
10802;DHT22;5453;50.852;7.102;2024-02-28T15:49:20;11.60;97.60
10802;DHT22;5453;50.852;7.102;2024-02-28T15:51:52;11.60;97.60
10802;DHT22;5453;50.852;7.102;2024-02-28T15:54:25;11.50;97.60
10802;DHT22;5453;50.852;7.102;2024-02-28T15:57:02;11.50;97.60
10802;DHT22;5453;50.852;7.102;2024-02-28T15:59:35;11.50;97.70
10802;DHT22;5453;50.852;7.102;2024-02-28T16:02:09;11.50;99.10
10802;DHT22;5453;50.852;7.102;2024-02-28T16:04:42;11.50;98.50
10802;DHT22;5453;50.852;7.102;2024-02-28T16:07:14;11.50;98.10
10802;DHT22;5453;50.852;7.102;2024-02-28T16:09:46;11.50;97.90
10802;DHT22;5453;50.852;7.102;2024-02-28T16:12:20;11.50;98.00
10802;DHT22;5453;50.852;7.102;2024-02-28T16:14:54;11.40;98.20
10802;DHT22;5453;50.852;7.102;2024-02-28T16:17:26;11.40;98.20
10802;DHT22;5453;50.852;7.102;2024-02-28T16:19:59;11.30;98.30
10802;DHT22;5453;50.852;7.102;2024-02-28T16:22:33;11.30;98.30
10802;DHT22;5453;50.852;7.102;2024-02-28T16:25:08;11.30;98.10
10802;DHT22;5453;50.852;7.102;2024-02-28T16:27:42;11.20;98.30
10802;DHT22;5453;50.852;7.102;2024-02-28T16:30:15;11.20;98.80
10802;DHT22;5453;50.852;7.102;2024-02-28T16:32:47;11.10;98.80
10802;DHT22;5453;50.852;7.102;2024-02-28T16:35:23;11.10;98.70
10802;DHT22;5453;50.852;7.102;2024-02-28T16:37:56;11.10;98.70
10802;DHT22;5453;50.852;7.102;2024-02-28T16:40:28;11.10;98.70